sensor_id;sensor_type;location;lat;lon;timestamp;temperature;humidity
20081;DHT22;10200;49.232;9.222;2023-08-31T00:01:39;17.30;99.90
20081;DHT22;10200;49.232;9.222;2023-08-31T00:04:04;17.30;99.90
20081;DHT22;10200;49.232;9.222;2023-08-31T00:06:32;17.20;99.90
20081;DHT22;10200;49.232;9.222;2023-08-31T00:08:57;17.20;99.90
20081;DHT22;10200;49.232;9.222;2023-08-31T00:11:23;17.10;99.90
20081;DHT22;10200;49.232;9.222;2023-08-31T00:13:49;17.20;99.90
20081;DHT22;10200;49.232;9.222;2023-08-31T00:16:15;17.10;99.90
20081;DHT22;10200;49.232;9.222;2023-08-31T00:18:41;17.10;99.90
20081;DHT22;10200;49.232;9.222;2023-08-31T00:21:06;17.10;99.90
20081;DHT22;10200;49.232;9.222;2023-08-31T00:23:32;17.10;99.90
20081;DHT22;10200;49.232;9.222;2023-08-31T00:25:57;17.10;99.90
20081;DHT22;10200;49.232;9.222;2023-08-31T00:28:23;17.00;99.90
20081;DHT22;10200;49.232;9.222;2023-08-31T00:30:50;17.00;99.90
20081;DHT22;10200;49.232;9.222;2023-08-31T00:33:17;16.90;99.90
20081;DHT22;10200;49.232;9.222;2023-08-31T00:35:42;16.90;99.90
20081;DHT22;10200;49.232;9.222;2023-08-31T00:38:11;16.90;99.90
20081;DHT22;10200;49.232;9.222;2023-08-31T00:40:44;16.90;99.90
20081;DHT22;10200;49.232;9.222;2023-08-31T00:43:11;16.80;99.90
20081;DHT22;10200;49.232;9.222;2023-08-31T00:45:37;16.80;99.90
20081;DHT22;10200;49.232;9.222;2023-08-31T00:48:04;16.80;99.90
20081;DHT22;10200;49.232;9.222;2023-08-31T00:50:30;16.80;99.90
20081;DHT22;10200;49.232;9.222;2023-08-31T00:52:56;16.80;99.90
20081;DHT22;10200;49.232;9.222;2023-08-31T00:55:22;16.70;99.90
20081;DHT22;10200;49.232;9.222;2023-08-31T00:57:48;16.70;99.90
20081;DHT22;10200;49.232;9.222;2023-08-31T01:00:14;16.60;99.90
20081;DHT22;10200;49.232;9.222;2023-08-31T01:05:36;16.60;99.90
20081;DHT22;10200;49.232;9.222;2023-08-31T01:13:24;16.40;99.90
20081;DHT22;10200;49.232;9.222;2023-08-31T01:15:56;16.40;99.90
20081;DHT22;10200;49.232;9.222;2023-08-31T01:18:26;16.40;99.90
20081;DHT22;10200;49.232;9.222;2023-08-31T01:21:17;16.50;99.90
20081;DHT22;10200;49.232;9.222;2023-08-31T01:23:52;16.50;99.90
20081;DHT22;10200;49.232;9.222;2023-08-31T01:26:19;16.50;99.90
20081;DHT22;10200;49.232;9.222;2023-08-31T01:28:46;16.40;99.90
20081;DHT22;10200;49.232;9.222;2023-08-31T01:31:12;16.50;99.90
20081;DHT22;10200;49.232;9.222;2023-08-31T01:33:38;16.50;99.90
20081;DHT22;10200;49.232;9.222;2023-08-31T01:36:08;16.50;99.90
20081;DHT22;10200;49.232;9.222;2023-08-31T01:38:38;16.60;99.90
20081;DHT22;10200;49.232;9.222;2023-08-31T01:41:11;16.50;99.90
20081;DHT22;10200;49.232;9.222;2023-08-31T01:43:40;16.70;99.90
20081;DHT22;10200;49.232;9.222;2023-08-31T01:46:07;16.60;99.90
20081;DHT22;10200;49.232;9.222;2023-08-31T01:48:41;16.60;99.90
20081;DHT22;10200;49.232;9.222;2023-08-31T01:51:10;16.60;99.90
20081;DHT22;10200;49.232;9.222;2023-08-31T01:53:36;16.60;99.90
20081;DHT22;10200;49.232;9.222;2023-08-31T01:56:02;16.60;99.90
20081;DHT22;10200;49.232;9.222;2023-08-31T01:58:28;16.60;99.90
20081;DHT22;10200;49.232;9.222;2023-08-31T02:00:54;16.60;99.90
20081;DHT22;10200;49.232;9.222;2023-08-31T02:03:19;16.50;99.90
20081;DHT22;10200;49.232;9.222;2023-08-31T02:05:45;16.60;99.90
20081;DHT22;10200;49.232;9.222;2023-08-31T02:08:10;16.60;99.90
20081;DHT22;10200;49.232;9.222;2023-08-31T02:10:36;16.60;99.90
20081;DHT22;10200;49.232;9.222;2023-08-31T02:13:01;16.60;99.90
20081;DHT22;10200;49.232;9.222;2023-08-31T02:15:27;16.60;99.90
20081;DHT22;10200;49.232;9.222;2023-08-31T02:17:53;16.60;99.90
20081;DHT22;10200;49.232;9.222;2023-08-31T02:20:19;16.60;99.90
20081;DHT22;10200;49.232;9.222;2023-08-31T02:22:46;16.60;99.90
20081;DHT22;10200;49.232;9.222;2023-08-31T02:25:12;16.60;99.90
20081;DHT22;10200;49.232;9.222;2023-08-31T02:27:39;16.60;99.90
20081;DHT22;10200;49.232;9.222;2023-08-31T02:30:05;16.50;99.90
20081;DHT22;10200;49.232;9.222;2023-08-31T02:32:31;16.60;99.90
20081;DHT22;10200;49.232;9.222;2023-08-31T02:34:56;16.60;99.90
20081;DHT22;10200;49.232;9.222;2023-08-31T02:37:22;16.60;99.90
20081;DHT22;10200;49.232;9.222;2023-08-31T02:39:47;16.50;99.90
20081;DHT22;10200;49.232;9.222;2023-08-31T02:42:14;16.50;99.90
20081;DHT22;10200;49.232;9.222;2023-08-31T02:44:40;16.50;99.90
20081;DHT22;10200;49.232;9.222;2023-08-31T02:47:05;16.50;99.90
20081;DHT22;10200;49.232;9.222;2023-08-31T02:49:32;16.50;99.90
20081;DHT22;10200;49.232;9.222;2023-08-31T02:51:57;16.50;99.90
20081;DHT22;10200;49.232;9.222;2023-08-31T02:54:23;16.50;99.90
20081;DHT22;10200;49.232;9.222;2023-08-31T02:56:49;16.40;99.90
20081;DHT22;10200;49.232;9.222;2023-08-31T02:59:14;16.40;99.90
20081;DHT22;10200;49.232;9.222;2023-08-31T03:01:40;16.40;99.90
20081;DHT22;10200;49.232;9.222;2023-08-31T03:04:06;16.40;99.90
20081;DHT22;10200;49.232;9.222;2023-08-31T03:06:32;16.30;99.90
20081;DHT22;10200;49.232;9.222;2023-08-31T03:08:58;16.30;99.90
20081;DHT22;10200;49.232;9.222;2023-08-31T03:11:23;16.20;99.90
20081;DHT22;10200;49.232;9.222;2023-08-31T03:13:49;16.30;99.90
20081;DHT22;10200;49.232;9.222;2023-08-31T03:16:14;16.30;99.90
20081;DHT22;10200;49.232;9.222;2023-08-31T03:18:40;16.30;99.90
20081;DHT22;10200;49.232;9.222;2023-08-31T03:21:05;16.30;99.90
20081;DHT22;10200;49.232;9.222;2023-08-31T03:23:31;16.20;99.90
20081;DHT22;10200;49.232;9.222;2023-08-31T03:25:57;16.20;99.90
20081;DHT22;10200;49.232;9.222;2023-08-31T03:28:22;16.20;99.90
20081;DHT22;10200;49.232;9.222;2023-08-31T03:30:57;16.30;99.90
20081;DHT22;10200;49.232;9.222;2023-08-31T03:33:22;16.20;99.90
20081;DHT22;10200;49.232;9.222;2023-08-31T03:35:48;16.20;99.90
20081;DHT22;10200;49.232;9.222;2023-08-31T03:38:13;16.20;99.90
20081;DHT22;10200;49.232;9.222;2023-08-31T03:40:39;16.20;99.90
20081;DHT22;10200;49.232;9.222;2023-08-31T03:43:05;16.20;99.90
20081;DHT22;10200;49.232;9.222;2023-08-31T03:45:30;16.20;99.90
20081;DHT22;10200;49.232;9.222;2023-08-31T03:47:56;16.30;99.90
20081;DHT22;10200;49.232;9.222;2023-08-31T03:50:21;16.20;99.90
20081;DHT22;10200;49.232;9.222;2023-08-31T03:52:47;16.20;99.90
20081;DHT22;10200;49.232;9.222;2023-08-31T03:55:12;16.20;99.90
20081;DHT22;10200;49.232;9.222;2023-08-31T03:57:38;16.10;99.90
20081;DHT22;10200;49.232;9.222;2023-08-31T04:00:04;16.20;99.90
20081;DHT22;10200;49.232;9.222;2023-08-31T04:02:38;16.20;99.90
20081;DHT22;10200;49.232;9.222;2023-08-31T04:05:04;16.20;99.90
20081;DHT22;10200;49.232;9.222;2023-08-31T04:07:32;16.20;99.90
20081;DHT22;10200;49.232;9.222;2023-08-31T04:09:58;16.20;99.90
20081;DHT22;10200;49.232;9.222;2023-08-31T04:12:23;16.20;99.90
20081;DHT22;10200;49.232;9.222;2023-08-31T04:14:49;16.10;99.90
20081;DHT22;10200;49.232;9.222;2023-08-31T04:17:15;16.20;99.90
20081;DHT22;10200;49.232;9.222;2023-08-31T04:19:40;16.20;99.90
20081;DHT22;10200;49.232;9.222;2023-08-31T04:22:06;16.10;99.90
20081;DHT22;10200;49.232;9.222;2023-08-31T04:24:31;16.00;99.90
20081;DHT22;10200;49.232;9.222;2023-08-31T04:26:57;16.10;99.90
20081;DHT22;10200;49.232;9.222;2023-08-31T04:29:22;16.00;99.90
20081;DHT22;10200;49.232;9.222;2023-08-31T04:31:48;16.00;99.90
20081;DHT22;10200;49.232;9.222;2023-08-31T04:34:14;16.00;99.90
20081;DHT22;10200;49.232;9.222;2023-08-31T04:36:39;16.00;99.90
20081;DHT22;10200;49.232;9.222;2023-08-31T04:42:32;16.00;99.90
20081;DHT22;10200;49.232;9.222;2023-08-31T04:45:10;15.90;99.90
20081;DHT22;10200;49.232;9.222;2023-08-31T04:47:36;15.90;99.90
20081;DHT22;10200;49.232;9.222;2023-08-31T04:50:02;15.90;99.90
20081;DHT22;10200;49.232;9.222;2023-08-31T04:52:28;15.90;99.90
20081;DHT22;10200;49.232;9.222;2023-08-31T04:54:54;15.90;99.90
20081;DHT22;10200;49.232;9.222;2023-08-31T04:57:19;16.00;99.90
20081;DHT22;10200;49.232;9.222;2023-08-31T04:59:45;16.00;99.90
20081;DHT22;10200;49.232;9.222;2023-08-31T05:02:11;16.20;99.90
20081;DHT22;10200;49.232;9.222;2023-08-31T05:04:36;16.00;99.90
20081;DHT22;10200;49.232;9.222;2023-08-31T05:07:02;16.10;99.90
20081;DHT22;10200;49.232;9.222;2023-08-31T05:09:28;16.10;99.90
20081;DHT22;10200;49.232;9.222;2023-08-31T05:11:58;16.20;99.90
20081;DHT22;10200;49.232;9.222;2023-08-31T05:14:23;16.20;99.90
20081;DHT22;10200;49.232;9.222;2023-08-31T05:16:49;16.30;99.90
20081;DHT22;10200;49.232;9.222;2023-08-31T05:19:14;16.40;99.90
20081;DHT22;10200;49.232;9.222;2023-08-31T05:21:40;16.40;99.90
20081;DHT22;10200;49.232;9.222;2023-08-31T05:24:06;16.50;99.90
20081;DHT22;10200;49.232;9.222;2023-08-31T05:26:31;16.50;99.90
20081;DHT22;10200;49.232;9.222;2023-08-31T05:28:57;16.70;99.90
20081;DHT22;10200;49.232;9.222;2023-08-31T05:31:22;17.10;99.90
20081;DHT22;10200;49.232;9.222;2023-08-31T05:33:48;17.70;99.90
20081;DHT22;10200;49.232;9.222;2023-08-31T05:36:13;18.50;99.90
20081;DHT22;10200;49.232;9.222;2023-08-31T05:38:39;19.30;99.90
20081;DHT22;10200;49.232;9.222;2023-08-31T05:41:08;20.30;99.90
20081;DHT22;10200;49.232;9.222;2023-08-31T05:43:35;21.10;99.90
20081;DHT22;10200;49.232;9.222;2023-08-31T05:46:01;22.40;98.40
20081;DHT22;10200;49.232;9.222;2023-08-31T05:48:27;23.40;92.40
20081;DHT22;10200;49.232;9.222;2023-08-31T05:50:53;24.30;84.70
20081;DHT22;10200;49.232;9.222;2023-08-31T05:53:19;25.10;77.90
20081;DHT22;10200;49.232;9.222;2023-08-31T05:55:45;26.00;74.00
20081;DHT22;10200;49.232;9.222;2023-08-31T05:58:11;26.40;67.10
20081;DHT22;10200;49.232;9.222;2023-08-31T06:00:36;26.90;63.90
20081;DHT22;10200;49.232;9.222;2023-08-31T06:03:04;27.40;61.60
20081;DHT22;10200;49.232;9.222;2023-08-31T06:05:31;27.80;59.10
20081;DHT22;10200;49.232;9.222;2023-08-31T06:08:00;28.10;56.60
20081;DHT22;10200;49.232;9.222;2023-08-31T06:10:26;27.60;55.60
20081;DHT22;10200;49.232;9.222;2023-08-31T06:12:51;26.90;57.30
20081;DHT22;10200;49.232;9.222;2023-08-31T06:15:17;25.90;57.10
20081;DHT22;10200;49.232;9.222;2023-08-31T06:17:43;25.70;59.80
20081;DHT22;10200;49.232;9.222;2023-08-31T06:20:09;25.20;60.00
20081;DHT22;10200;49.232;9.222;2023-08-31T06:22:35;24.40;59.90
20081;DHT22;10200;49.232;9.222;2023-08-31T06:37:14;20.50;75.50
20081;DHT22;10200;49.232;9.222;2023-08-31T06:39:40;20.40;77.50
20081;DHT22;10200;49.232;9.222;2023-08-31T06:42:06;20.20;78.70
20081;DHT22;10200;49.232;9.222;2023-08-31T06:44:32;20.20;80.40
20081;DHT22;10200;49.232;9.222;2023-08-31T06:46:58;20.10;80.60
20081;DHT22;10200;49.232;9.222;2023-08-31T06:49:23;20.20;81.90
20081;DHT22;10200;49.232;9.222;2023-08-31T06:51:49;20.20;82.40
20081;DHT22;10200;49.232;9.222;2023-08-31T06:54:15;20.30;81.50
20081;DHT22;10200;49.232;9.222;2023-08-31T06:56:41;20.10;81.40
20081;DHT22;10200;49.232;9.222;2023-08-31T06:59:06;20.10;83.50
20081;DHT22;10200;49.232;9.222;2023-08-31T07:01:32;20.20;83.60
20081;DHT22;10200;49.232;9.222;2023-08-31T07:04:00;20.20;81.80
20081;DHT22;10200;49.232;9.222;2023-08-31T07:06:26;20.00;82.00
20081;DHT22;10200;49.232;9.222;2023-08-31T07:08:51;19.90;83.00
20081;DHT22;10200;49.232;9.222;2023-08-31T07:11:17;19.80;84.50
20081;DHT22;10200;49.232;9.222;2023-08-31T07:13:43;19.80;85.00
20081;DHT22;10200;49.232;9.222;2023-08-31T07:16:08;19.80;86.30
20081;DHT22;10200;49.232;9.222;2023-08-31T07:18:35;19.80;87.50
20081;DHT22;10200;49.232;9.222;2023-08-31T07:21:01;20.10;88.50
20081;DHT22;10200;49.232;9.222;2023-08-31T07:23:27;20.80;90.50
20081;DHT22;10200;49.232;9.222;2023-08-31T07:25:56;21.20;83.80
20081;DHT22;10200;49.232;9.222;2023-08-31T07:45:24;22.30;74.80
20081;DHT22;10200;49.232;9.222;2023-08-31T07:47:50;22.20;74.80
20081;DHT22;10200;49.232;9.222;2023-08-31T07:50:15;22.40;73.90
20081;DHT22;10200;49.232;9.222;2023-08-31T07:52:41;22.10;74.00
20081;DHT22;10200;49.232;9.222;2023-08-31T07:55:07;22.20;73.00
20081;DHT22;10200;49.232;9.222;2023-08-31T07:57:32;22.50;71.50
20081;DHT22;10200;49.232;9.222;2023-08-31T07:59:59;22.70;74.70
20081;DHT22;10200;49.232;9.222;2023-08-31T08:02:25;23.40;73.10
20081;DHT22;10200;49.232;9.222;2023-08-31T08:04:50;24.10;69.30
20081;DHT22;10200;49.232;9.222;2023-08-31T08:07:16;24.60;66.00
20081;DHT22;10200;49.232;9.222;2023-08-31T08:09:41;24.80;61.70
20081;DHT22;10200;49.232;9.222;2023-08-31T08:12:07;25.00;61.60
20081;DHT22;10200;49.232;9.222;2023-08-31T08:14:33;25.20;60.70
20081;DHT22;10200;49.232;9.222;2023-08-31T08:16:59;25.50;59.40
20081;DHT22;10200;49.232;9.222;2023-08-31T08:19:25;25.50;56.50
20081;DHT22;10200;49.232;9.222;2023-08-31T08:21:51;25.20;58.00
20081;DHT22;10200;49.232;9.222;2023-08-31T08:24:17;25.40;56.70
20081;DHT22;10200;49.232;9.222;2023-08-31T08:26:43;25.50;56.20
20081;DHT22;10200;49.232;9.222;2023-08-31T08:29:08;25.50;55.00
20081;DHT22;10200;49.232;9.222;2023-08-31T08:31:34;25.60;55.60
20081;DHT22;10200;49.232;9.222;2023-08-31T08:34:00;25.20;55.60
20081;DHT22;10200;49.232;9.222;2023-08-31T08:36:26;24.70;55.20
20081;DHT22;10200;49.232;9.222;2023-08-31T08:38:51;24.30;58.10
20081;DHT22;10200;49.232;9.222;2023-08-31T08:41:23;24.20;57.00
20081;DHT22;10200;49.232;9.222;2023-08-31T08:43:50;23.70;57.30
20081;DHT22;10200;49.232;9.222;2023-08-31T08:46:16;23.10;58.80
20081;DHT22;10200;49.232;9.222;2023-08-31T08:48:42;22.70;59.90
20081;DHT22;10200;49.232;9.222;2023-08-31T08:51:10;22.40;61.00
20081;DHT22;10200;49.232;9.222;2023-08-31T08:53:36;22.40;66.00
20081;DHT22;10200;49.232;9.222;2023-08-31T08:56:04;22.80;64.80
20081;DHT22;10200;49.232;9.222;2023-08-31T08:58:29;23.10;64.80
20081;DHT22;10200;49.232;9.222;2023-08-31T09:00:55;23.80;63.30
20081;DHT22;10200;49.232;9.222;2023-08-31T09:03:24;23.70;59.00
20081;DHT22;10200;49.232;9.222;2023-08-31T09:05:50;23.30;61.20
20081;DHT22;10200;49.232;9.222;2023-08-31T09:08:26;23.50;63.60
20081;DHT22;10200;49.232;9.222;2023-08-31T09:10:52;23.90;63.90
20081;DHT22;10200;49.232;9.222;2023-08-31T09:13:18;23.80;59.80
20081;DHT22;10200;49.232;9.222;2023-08-31T09:15:48;23.40;59.70
20081;DHT22;10200;49.232;9.222;2023-08-31T09:20:50;22.50;61.00
20081;DHT22;10200;49.232;9.222;2023-08-31T09:23:16;22.20;63.80
20081;DHT22;10200;49.232;9.222;2023-08-31T09:25:47;21.80;64.50
20081;DHT22;10200;49.232;9.222;2023-08-31T09:28:15;21.60;66.20
20081;DHT22;10200;49.232;9.222;2023-08-31T09:30:42;21.50;66.60
20081;DHT22;10200;49.232;9.222;2023-08-31T09:33:09;21.40;67.20
20081;DHT22;10200;49.232;9.222;2023-08-31T09:35:39;21.40;68.20
20081;DHT22;10200;49.232;9.222;2023-08-31T09:38:09;21.40;67.40
20081;DHT22;10200;49.232;9.222;2023-08-31T09:40:36;21.30;66.90
20081;DHT22;10200;49.232;9.222;2023-08-31T09:43:02;21.20;66.50
20081;DHT22;10200;49.232;9.222;2023-08-31T10:10:12;21.90;65.50
20081;DHT22;10200;49.232;9.222;2023-08-31T10:12:38;21.90;66.30
20081;DHT22;10200;49.232;9.222;2023-08-31T10:15:06;22.30;63.90
20081;DHT22;10200;49.232;9.222;2023-08-31T10:17:32;22.20;61.80
20081;DHT22;10200;49.232;9.222;2023-08-31T10:19:58;22.00;60.50
20081;DHT22;10200;49.232;9.222;2023-08-31T10:22:23;22.00;61.40
20081;DHT22;10200;49.232;9.222;2023-08-31T10:25:00;21.90;61.50
20081;DHT22;10200;49.232;9.222;2023-08-31T10:27:27;21.80;62.10
20081;DHT22;10200;49.232;9.222;2023-08-31T10:29:53;21.90;62.70
20081;DHT22;10200;49.232;9.222;2023-08-31T10:32:19;21.90;61.50
20081;DHT22;10200;49.232;9.222;2023-08-31T10:35:04;21.80;59.70
20081;DHT22;10200;49.232;9.222;2023-08-31T10:37:30;21.70;61.30
20081;DHT22;10200;49.232;9.222;2023-08-31T10:40:13;21.60;60.00
20081;DHT22;10200;49.232;9.222;2023-08-31T10:42:46;21.70;61.30
20081;DHT22;10200;49.232;9.222;2023-08-31T10:45:19;21.80;59.70
20081;DHT22;10200;49.232;9.222;2023-08-31T10:47:46;21.90;59.20
20081;DHT22;10200;49.232;9.222;2023-08-31T10:50:20;22.30;62.30
20081;DHT22;10200;49.232;9.222;2023-08-31T10:52:47;22.50;58.80
20081;DHT22;10200;49.232;9.222;2023-08-31T10:55:12;22.50;58.00
20081;DHT22;10200;49.232;9.222;2023-08-31T10:57:39;22.50;58.80
20081;DHT22;10200;49.232;9.222;2023-08-31T11:00:07;22.40;58.00
20081;DHT22;10200;49.232;9.222;2023-08-31T11:02:42;22.50;58.70
20081;DHT22;10200;49.232;9.222;2023-08-31T11:07:46;22.50;58.50
20081;DHT22;10200;49.232;9.222;2023-08-31T11:10:23;22.40;58.50
20081;DHT22;10200;49.232;9.222;2023-08-31T11:12:50;22.40;59.10
20081;DHT22;10200;49.232;9.222;2023-08-31T11:15:18;22.30;59.30
20081;DHT22;10200;49.232;9.222;2023-08-31T11:17:44;22.30;58.30
20081;DHT22;10200;49.232;9.222;2023-08-31T11:20:15;22.40;58.60
20081;DHT22;10200;49.232;9.222;2023-08-31T11:22:46;22.70;58.60
20081;DHT22;10200;49.232;9.222;2023-08-31T11:25:15;23.00;57.50
20081;DHT22;10200;49.232;9.222;2023-08-31T11:27:42;22.90;55.20
20081;DHT22;10200;49.232;9.222;2023-08-31T11:30:15;22.60;54.70
20081;DHT22;10200;49.232;9.222;2023-08-31T11:32:52;22.80;55.20
20081;DHT22;10200;49.232;9.222;2023-08-31T11:35:19;22.80;55.40
20081;DHT22;10200;49.232;9.222;2023-08-31T11:37:48;22.80;56.20
20081;DHT22;10200;49.232;9.222;2023-08-31T11:40:14;22.70;55.30
20081;DHT22;10200;49.232;9.222;2023-08-31T11:42:40;22.50;54.80
20081;DHT22;10200;49.232;9.222;2023-08-31T11:45:06;22.40;55.40
20081;DHT22;10200;49.232;9.222;2023-08-31T11:47:33;22.40;55.60
20081;DHT22;10200;49.232;9.222;2023-08-31T11:50:00;22.20;54.80
20081;DHT22;10200;49.232;9.222;2023-08-31T11:52:27;22.00;55.30
20081;DHT22;10200;49.232;9.222;2023-08-31T11:54:53;21.90;55.50
20081;DHT22;10200;49.232;9.222;2023-08-31T11:57:19;21.70;56.20
20081;DHT22;10200;49.232;9.222;2023-08-31T11:59:50;21.60;57.00
20081;DHT22;10200;49.232;9.222;2023-08-31T12:02:19;21.30;57.30
20081;DHT22;10200;49.232;9.222;2023-08-31T12:04:45;21.10;58.40
20081;DHT22;10200;49.232;9.222;2023-08-31T12:21:59;21.20;60.80
20081;DHT22;10200;49.232;9.222;2023-08-31T12:24:25;21.30;61.80
20081;DHT22;10200;49.232;9.222;2023-08-31T12:26:51;21.40;61.80
20081;DHT22;10200;49.232;9.222;2023-08-31T12:29:19;21.60;61.50
20081;DHT22;10200;49.232;9.222;2023-08-31T12:31:44;21.70;61.20
20081;DHT22;10200;49.232;9.222;2023-08-31T12:34:10;21.70;60.50
20081;DHT22;10200;49.232;9.222;2023-08-31T12:36:36;21.80;61.30
20081;DHT22;10200;49.232;9.222;2023-08-31T12:39:04;22.10;61.00
20081;DHT22;10200;49.232;9.222;2023-08-31T12:41:32;22.10;59.20
20081;DHT22;10200;49.232;9.222;2023-08-31T12:43:58;22.30;59.00
20081;DHT22;10200;49.232;9.222;2023-08-31T12:46:24;22.40;59.50
20081;DHT22;10200;49.232;9.222;2023-08-31T12:48:50;22.60;58.60
20081;DHT22;10200;49.232;9.222;2023-08-31T12:51:17;22.70;58.00
20081;DHT22;10200;49.232;9.222;2023-08-31T12:53:42;22.90;58.10
20081;DHT22;10200;49.232;9.222;2023-08-31T12:56:08;23.10;57.30
20081;DHT22;10200;49.232;9.222;2023-08-31T12:58:34;23.20;56.00
20081;DHT22;10200;49.232;9.222;2023-08-31T13:00:59;23.20;56.40
20081;DHT22;10200;49.232;9.222;2023-08-31T13:03:25;23.10;56.20
20081;DHT22;10200;49.232;9.222;2023-08-31T13:05:51;23.00;56.60
20081;DHT22;10200;49.232;9.222;2023-08-31T13:08:17;23.00;57.00
20081;DHT22;10200;49.232;9.222;2023-08-31T13:10:43;23.10;57.00
20081;DHT22;10200;49.232;9.222;2023-08-31T13:13:09;23.10;56.40
20081;DHT22;10200;49.232;9.222;2023-08-31T13:15:35;23.30;56.80
20081;DHT22;10200;49.232;9.222;2023-08-31T13:18:00;23.30;56.20
20081;DHT22;10200;49.232;9.222;2023-08-31T13:20:26;23.40;56.30
20081;DHT22;10200;49.232;9.222;2023-08-31T13:22:52;23.40;56.50
20081;DHT22;10200;49.232;9.222;2023-08-31T13:25:18;23.40;56.60
20081;DHT22;10200;49.232;9.222;2023-08-31T13:27:44;23.40;56.10
20081;DHT22;10200;49.232;9.222;2023-08-31T13:30:10;23.40;55.10
20081;DHT22;10200;49.232;9.222;2023-08-31T13:32:38;23.40;56.00
20081;DHT22;10200;49.232;9.222;2023-08-31T13:35:04;23.50;56.30
20081;DHT22;10200;49.232;9.222;2023-08-31T13:37:33;23.50;55.80
20081;DHT22;10200;49.232;9.222;2023-08-31T13:39:59;23.60;55.50
20081;DHT22;10200;49.232;9.222;2023-08-31T13:42:25;23.70;54.60
20081;DHT22;10200;49.232;9.222;2023-08-31T13:44:51;23.60;54.60
20081;DHT22;10200;49.232;9.222;2023-08-31T13:47:16;23.50;54.80
20081;DHT22;10200;49.232;9.222;2023-08-31T13:49:42;23.60;55.00
20081;DHT22;10200;49.232;9.222;2023-08-31T13:52:08;23.60;55.20
20081;DHT22;10200;49.232;9.222;2023-08-31T13:54:35;23.40;54.90
20081;DHT22;10200;49.232;9.222;2023-08-31T13:57:01;23.20;55.30
20081;DHT22;10200;49.232;9.222;2023-08-31T13:59:27;23.10;56.10
20081;DHT22;10200;49.232;9.222;2023-08-31T14:01:55;23.10;55.90
20081;DHT22;10200;49.232;9.222;2023-08-31T14:04:21;23.00;56.10
20081;DHT22;10200;49.232;9.222;2023-08-31T14:06:49;22.80;56.50
20081;DHT22;10200;49.232;9.222;2023-08-31T14:09:15;22.70;56.20
20081;DHT22;10200;49.232;9.222;2023-08-31T14:11:42;22.50;56.90
20081;DHT22;10200;49.232;9.222;2023-08-31T14:14:07;22.40;56.20
20081;DHT22;10200;49.232;9.222;2023-08-31T14:16:37;22.20;56.90
20081;DHT22;10200;49.232;9.222;2023-08-31T14:19:03;22.10;57.70
20081;DHT22;10200;49.232;9.222;2023-08-31T14:21:29;22.20;58.50
20081;DHT22;10200;49.232;9.222;2023-08-31T14:23:55;22.40;58.30
20081;DHT22;10200;49.232;9.222;2023-08-31T14:26:22;22.50;57.90
20081;DHT22;10200;49.232;9.222;2023-08-31T14:28:49;22.60;57.60
20081;DHT22;10200;49.232;9.222;2023-08-31T14:31:14;22.60;57.40
20081;DHT22;10200;49.232;9.222;2023-08-31T14:33:41;22.50;57.50
20081;DHT22;10200;49.232;9.222;2023-08-31T14:36:06;22.50;57.50
20081;DHT22;10200;49.232;9.222;2023-08-31T14:38:32;22.40;57.60
20081;DHT22;10200;49.232;9.222;2023-08-31T14:40:58;22.20;57.90
20081;DHT22;10200;49.232;9.222;2023-08-31T14:43:23;22.20;58.40
20081;DHT22;10200;49.232;9.222;2023-08-31T14:45:49;22.10;59.60
20081;DHT22;10200;49.232;9.222;2023-08-31T14:48:14;22.10;59.10
20081;DHT22;10200;49.232;9.222;2023-08-31T14:50:43;22.10;59.70
20081;DHT22;10200;49.232;9.222;2023-08-31T14:53:09;22.10;59.50
20081;DHT22;10200;49.232;9.222;2023-08-31T14:55:34;22.00;59.50
20081;DHT22;10200;49.232;9.222;2023-08-31T14:58:00;22.00;59.80
20081;DHT22;10200;49.232;9.222;2023-08-31T15:00:26;21.90;59.50
20081;DHT22;10200;49.232;9.222;2023-08-31T15:02:51;21.80;60.00
20081;DHT22;10200;49.232;9.222;2023-08-31T15:05:17;21.90;60.20
20081;DHT22;10200;49.232;9.222;2023-08-31T15:07:42;21.80;60.60
20081;DHT22;10200;49.232;9.222;2023-08-31T15:10:08;21.70;61.20
20081;DHT22;10200;49.232;9.222;2023-08-31T15:12:34;21.60;61.40
20081;DHT22;10200;49.232;9.222;2023-08-31T15:15:01;21.50;61.20
20081;DHT22;10200;49.232;9.222;2023-08-31T15:17:27;21.50;62.40
20081;DHT22;10200;49.232;9.222;2023-08-31T15:19:53;21.40;62.80
20081;DHT22;10200;49.232;9.222;2023-08-31T15:22:19;21.40;63.10
20081;DHT22;10200;49.232;9.222;2023-08-31T15:24:46;21.30;62.80
20081;DHT22;10200;49.232;9.222;2023-08-31T15:27:11;21.30;63.30
20081;DHT22;10200;49.232;9.222;2023-08-31T15:29:37;21.20;63.10
20081;DHT22;10200;49.232;9.222;2023-08-31T15:32:03;21.20;63.40
20081;DHT22;10200;49.232;9.222;2023-08-31T15:34:28;21.20;63.70
20081;DHT22;10200;49.232;9.222;2023-08-31T15:36:54;21.20;63.70
20081;DHT22;10200;49.232;9.222;2023-08-31T15:39:19;21.20;64.50
20081;DHT22;10200;49.232;9.222;2023-08-31T15:41:46;21.20;64.20
20081;DHT22;10200;49.232;9.222;2023-08-31T15:44:11;21.30;64.20
20081;DHT22;10200;49.232;9.222;2023-08-31T15:46:37;21.30;64.00
20081;DHT22;10200;49.232;9.222;2023-08-31T15:49:03;21.30;62.90
20081;DHT22;10200;49.232;9.222;2023-08-31T15:51:29;21.30;63.00
20081;DHT22;10200;49.232;9.222;2023-08-31T15:53:54;21.40;62.50
20081;DHT22;10200;49.232;9.222;2023-08-31T15:56:20;21.40;62.60
20081;DHT22;10200;49.232;9.222;2023-08-31T15:58:45;21.50;63.00
20081;DHT22;10200;49.232;9.222;2023-08-31T16:01:11;21.60;63.40
20081;DHT22;10200;49.232;9.222;2023-08-31T16:03:37;21.60;62.90
20081;DHT22;10200;49.232;9.222;2023-08-31T16:06:05;21.60;62.70
20081;DHT22;10200;49.232;9.222;2023-08-31T16:08:30;21.50;62.90
20081;DHT22;10200;49.232;9.222;2023-08-31T16:10:57;21.50;62.90
20081;DHT22;10200;49.232;9.222;2023-08-31T16:13:22;21.40;63.10
20081;DHT22;10200;49.232;9.222;2023-08-31T16:15:49;21.30;63.90
20081;DHT22;10200;49.232;9.222;2023-08-31T16:18:15;21.20;63.60
20081;DHT22;10200;49.232;9.222;2023-08-31T16:20:42;21.10;63.80
20081;DHT22;10200;49.232;9.222;2023-08-31T16:23:08;21.00;64.00
20081;DHT22;10200;49.232;9.222;2023-08-31T16:25:34;21.00;64.80
20081;DHT22;10200;49.232;9.222;2023-08-31T16:28:00;20.90;65.20
20081;DHT22;10200;49.232;9.222;2023-08-31T16:30:26;20.90;65.70
20081;DHT22;10200;49.232;9.222;2023-08-31T16:32:52;20.80;65.60
20081;DHT22;10200;49.232;9.222;2023-08-31T16:35:17;20.70;66.10
20081;DHT22;10200;49.232;9.222;2023-08-31T16:37:43;20.70;66.40
20081;DHT22;10200;49.232;9.222;2023-08-31T16:40:13;20.60;66.60
20081;DHT22;10200;49.232;9.222;2023-08-31T16:42:39;20.60;66.70
20081;DHT22;10200;49.232;9.222;2023-08-31T16:45:05;20.50;67.00
20081;DHT22;10200;49.232;9.222;2023-08-31T16:47:33;20.50;67.10
20081;DHT22;10200;49.232;9.222;2023-08-31T16:49:59;20.40;67.60
20081;DHT22;10200;49.232;9.222;2023-08-31T16:52:25;20.40;67.50